ADDS METAR Data INFO
IDs: Format: Raw Decoded Include TAF

Data at: 1909 UTC 23 Apr 2018

KTVK 231855Z AUTO 02011G18KT 10SM 22/00 A3010 RMK AO2
KTVK 231835Z AUTO 05014G19KT 10SM 21/00 A3011 RMK AO2
KTVK 231815Z AUTO 05012G18KT 10SM 21/M01 A3011 RMK AO2
KTVK 231755Z AUTO 02012G17KT 10SM 21/00 A3012 RMK AO2
KTVK 231735Z AUTO 04012G19KT 10SM 20/00 A3012 RMK AO2
KTVK 231715Z AUTO 04014G19KT 10SM 20/00 A3013 RMK AO2
KTVK 231655Z AUTO 02013G17KT 10SM 19/M01 A3013 RMK AO2
KTVK 231635Z AUTO 03013G18KT 10SM 19/M01 A3014 RMK AO2
KTVK 231615Z AUTO 01014G17KT 10SM 18/M01 A3014 RMK AO2
KTVK 231555Z AUTO 02010KT 10SM 18/00 A3015 RMK AO2
KTVK 231515Z AUTO 00000KT 10SM 16/00 A3016 RMK AO2
KTVK 231455Z AUTO 03009KT 10SM 15/00 A3016 RMK AO2
KTVK 231435Z AUTO 04007KT 10SM 14/00 A3017 RMK AO2
KTVK 231415Z AUTO 02007KT 10SM 12/M01 A3017 RMK AO2
KTVK 231355Z AUTO 02005KT 10SM 11/M01 A3018 RMK AO2
KTVK 231335Z AUTO 02006KT 10SM 10/M01 A3017 RMK AO2
KTVK 231315Z AUTO 03008KT 10SM 10/00 A3017 RMK AO2
KTVK 231255Z AUTO 02008KT 10SM 09/00 A3018 RMK AO2
KTVK 231235Z AUTO 02006KT 10SM 09/00 A3018 RMK AO2
KTVK 231215Z AUTO 03007KT 10SM 09/M01 A3018 RMK AO2
KTVK 231155Z AUTO 00000KT 10SM 09/00 A3017 RMK AO2
KTVK 231135Z AUTO 03004KT 10SM 09/00 A3017 RMK AO2
KTVK 231115Z AUTO 00000KT 10SM 09/M01 A3017 RMK AO2
KTVK 231055Z AUTO 03005KT 10SM 09/M01 A3016 RMK AO2
KTVK 231035Z AUTO 00000KT 10SM 09/M01 A3016 RMK AO2
KTVK 231015Z AUTO 02004KT 10SM 09/00 A3015 RMK AO2
KTVK 230955Z AUTO 02004KT 10SM 09/00 A3015 RMK AO2
KTVK 230935Z AUTO 00000KT 10SM 09/00 A3015 RMK AO2
KTVK 230915Z AUTO 00000KT 10SM 09/00 A3015 RMK AO2
KTVK 230855Z AUTO 00000KT 10SM 09/00 A3015 RMK AO2
KTVK 230835Z AUTO 02004KT 10SM 09/00 A3014 RMK AO2
KTVK 230815Z AUTO 00000KT 10SM 09/00 A3015 RMK AO2
KTVK 230755Z AUTO 00000KT 10SM 10/M01 A3015 RMK AO2
KTVK 230735Z AUTO 00000KT 10SM 10/M01 A3016 RMK AO2
KTVK 230715Z AUTO 04008KT 10SM 10/00 A3016 RMK AO2
KTVK 230655Z AUTO 04008KT 10SM 11/00 A3016 RMK AO2
KTVK 230635Z AUTO 05007KT 10SM 11/M01 A3016 RMK AO2
KTVK 230615Z AUTO 06008KT 10SM 12/M01 A3016 RMK AO2
KTVK 230555Z AUTO 06008KT 10SM 12/M02 A3016 RMK AO2
KTVK 230535Z AUTO 05010G16KT 10SM 12/M02 A3016 RMK AO2
KTVK 230515Z AUTO 04009KT 10SM 12/M03 A3016 RMK AO2
KTVK 230455Z AUTO 04008KT 10SM 12/M04 A3017 RMK AO2
KTVK 230435Z AUTO 04004KT 10SM 12/M04 A3017 RMK AO2
KTVK 230415Z AUTO 00000KT 10SM 12/M04 A3017 RMK AO2
KTVK 230355Z AUTO 00000KT 10SM 12/M05 A3017 RMK AO2
KTVK 230335Z AUTO 00000KT 10SM 11/M04 A3017 RMK AO2
KTVK 230315Z AUTO 00000KT 10SM 12/M05 A3017 RMK AO2
KTVK 230255Z AUTO 00000KT 10SM 12/M04 A3017 RMK AO2
KTVK 230235Z AUTO 00000KT 10SM 13/M04 A3017 RMK AO2
KTVK 230215Z AUTO 06007KT 10SM 14/M04 A3017 RMK AO2
KTVK 230155Z AUTO 07007KT 10SM 15/M03 A3016 RMK AO2
KTVK 230135Z AUTO 07007KT 10SM 15/M04 A3016 RMK AO2
KTVK 230115Z AUTO 08010KT 10SM 16/M03 A3016 RMK AO2
KTVK 230055Z AUTO 08009KT 10SM 17/M02 A3015 RMK AO2
KTVK 230035Z AUTO 09012KT 10SM 17/00 A3015 RMK AO2
KTVK 230015Z AUTO 09006KT 10SM 17/02 A3015 RMK AO2
KTVK 222355Z AUTO 10007KT 10SM 18/03 A3014 RMK AO2
KTVK 222335Z AUTO 09005KT 10SM 18/02 A3014 RMK AO2
KTVK 222315Z AUTO 08010KT 10SM 18/02 A3014 RMK AO2
KTVK 222255Z AUTO 08011KT 10SM 19/01 A3014 RMK AO2
KTVK 222235Z AUTO 10015G21KT 10SM 19/01 A3013 RMK AO2
KTVK 222215Z AUTO 07013G22KT 10SM 20/01 A3012 RMK AO2
KTVK 222155Z AUTO 09014G19KT 10SM 20/01 A3012 RMK AO2
KTVK 222135Z AUTO 07015G19KT 10SM 22/00 A3012 RMK AO2
KTVK 222115Z AUTO 07013G17KT 10SM 22/01 A3012 RMK AO2
KTVK 222035Z AUTO 08010G18KT 10SM 21/01 A3014 RMK AO2
KTVK 222015Z AUTO 07009G17KT 10SM 20/01 A3014 RMK AO2
KTVK 221955Z AUTO 08010KT 10SM 20/02 A3016 RMK AO2
KTVK 221935Z AUTO 07009G18KT 10SM 19/03 A3017 RMK AO2
KTVK 221915Z AUTO 07011G14KT 10SM 18/03 A3018 RMK AO2
KTVK 221835Z AUTO 08011G14KT 10SM 18/03 A3018 RMK AO2
KTVK 221815Z AUTO 05005G15KT 10SM 17/02 A3019 RMK AO2
KTVK 221755Z AUTO 08011G14KT 10SM 18/02 A3019 RMK AO2
KTVK 221735Z AUTO 07010G16KT 10SM 17/02 A3020 RMK AO2
KTVK 221715Z AUTO 06009G14KT 10SM 17/02 A3020 RMK AO2
KTVK 221655Z AUTO 06010KT 10SM 15/01 A3021 RMK AO2
KTVK 221635Z AUTO 07010KT 10SM 14/00 A3021 RMK AO2
KTVK 221615Z AUTO 07009KT 10SM 14/00 A3022 RMK AO2
KTVK 221555Z AUTO 07012KT 10SM 13/00 A3022 RMK AO2
KTVK 221535Z AUTO 06013KT 10SM 13/00 A3022 RMK AO2
KTVK 221515Z AUTO 06011KT 10SM 12/00 A3022 RMK AO2
KTVK 221455Z AUTO 07010KT 10SM 12/00 A3023 RMK AO2
KTVK 221435Z AUTO 05010KT 10SM 11/M01 A3023 RMK AO2
KTVK 221415Z AUTO 08011KT 10SM 10/M01 A3023 RMK AO2
KTVK 221355Z AUTO 08009KT 10SM 10/M01 A3023 RMK AO2
KTVK 221335Z AUTO 08011G17KT 10SM 09/M02 A3024 RMK AO2
KTVK 221315Z AUTO 09011G17KT 10SM 09/M01 A3024 RMK AO2
KTVK 221255Z AUTO 08011G17KT 10SM 08/M01 A3023 RMK AO2
KTVK 221235Z AUTO 08011KT 10SM 08/M01 A3023 RMK AO2
KTVK 221215Z AUTO 06008KT 10SM 08/M01 A3022 RMK AO2
KTVK 221155Z AUTO 06011KT 10SM 08/M01 A3022 RMK AO2
KTVK 221135Z AUTO 06012KT 10SM 08/M01 A3022 RMK AO2
KTVK 221115Z AUTO 07010KT 10SM 08/M01 A3022 RMK AO2
KTVK 221055Z AUTO 07011KT 10SM 08/00 A3022 RMK AO2
KTVK 221035Z AUTO 07010KT 10SM 08/00 A3022 RMK AO2
KTVK 221015Z AUTO 07010KT 10SM 08/00 A3021 RMK AO2
KTVK 220955Z AUTO 06007KT 10SM 08/00 A3021 RMK AO2
KTVK 220935Z AUTO 06009KT 10SM 08/00 A3022 RMK AO2
KTVK 220915Z AUTO 06008KT 10SM 08/00 A3022 RMK AO2
KTVK 220855Z AUTO 06008KT 10SM 08/00 A3022 RMK AO2
KTVK 220835Z AUTO 00000KT 10SM 08/00 A3022 RMK AO2
KTVK 220815Z AUTO 07008KT 10SM 09/00 A3022 RMK AO2
KTVK 220755Z AUTO 06008KT 10SM 09/00 A3023 RMK AO2
KTVK 220735Z AUTO 06010KT 10SM 09/00 A3023 RMK AO2
KTVK 220715Z AUTO 05011KT 10SM 09/00 A3023 RMK AO2